sensor_id;sensor_type;location;lat;lon;timestamp;pressure;altitude;pressure_sealevel;temperature;humidity
44075;BME280;60448;44.956;7.660;2022-09-21T00:00:00;98910;;;23.8;39.7
44075;BME280;60448;44.956;7.660;2022-09-21T00:05:00;98900;;;23.8;39.7
44075;BME280;60448;44.956;7.660;2022-09-21T00:10:00;98910;;;23.8;39.6
44075;BME280;60448;44.956;7.660;2022-09-21T00:15:00;98910;;;23.8;39.6
44075;BME280;60448;44.956;7.660;2022-09-21T00:20:00;98910;;;23.8;39.5
44075;BME280;60448;44.956;7.660;2022-09-21T00:25:00;98910;;;23.8;39.5
44075;BME280;60448;44.956;7.660;2022-09-21T00:30:00;98910;;;23.8;39.5
44075;BME280;60448;44.956;7.660;2022-09-21T00:35:00;98920;;;23.8;39.4
44075;BME280;60448;44.956;7.660;2022-09-21T00:40:00;98920;;;23.8;39.4
44075;BME280;60448;44.956;7.660;2022-09-21T00:45:00;98920;;;23.8;39.4
44075;BME280;60448;44.956;7.660;2022-09-21T00:50:01;98920;;;23.8;39.4
44075;BME280;60448;44.956;7.660;2022-09-21T00:55:02;98920;;;23.9;39.6
44075;BME280;60448;44.956;7.660;2022-09-21T01:00:00;98920;;;23.9;39.6
44075;BME280;60448;44.956;7.660;2022-09-21T01:05:00;98920;;;23.9;39.6
44075;BME280;60448;44.956;7.660;2022-09-21T01:10:01;98930;;;24.0;39.4
44075;BME280;60448;44.956;7.660;2022-09-21T01:15:06;98930;;;24.0;39.4
44075;BME280;60448;44.956;7.660;2022-09-21T01:30:04;98940;;;24.1;39.4
44075;BME280;60448;44.956;7.660;2022-09-21T01:40:01;98940;;;24.1;39.4
44075;BME280;60448;44.956;7.660;2022-09-21T01:45:01;98950;;;24.1;39.3
44075;BME280;60448;44.956;7.660;2022-09-21T01:50:00;98960;;;24.1;39.2
44075;BME280;60448;44.956;7.660;2022-09-21T01:55:02;98960;;;24.1;39.2
44075;BME280;60448;44.956;7.660;2022-09-21T02:00:00;98960;;;24.1;39.2
44075;BME280;60448;44.956;7.660;2022-09-21T02:05:00;98960;;;24.0;39.1
44075;BME280;60448;44.956;7.660;2022-09-21T02:10:00;98970;;;24.0;39.2
44075;BME280;60448;44.956;7.660;2022-09-21T02:15:00;98970;;;24.0;39.2
44075;BME280;60448;44.956;7.660;2022-09-21T02:20:02;98970;;;24.0;39.2
44075;BME280;60448;44.956;7.660;2022-09-21T02:35:02;98970;;;24.0;39.4
44075;BME280;60448;44.956;7.660;2022-09-21T02:45:06;98990;;;24.0;39.4
44075;BME280;60448;44.956;7.660;2022-09-21T02:50:04;98990;;;24.0;39.4
44075;BME280;60448;44.956;7.660;2022-09-21T02:55:00;98990;;;24.0;39.4
44075;BME280;60448;44.956;7.660;2022-09-21T03:00:00;98990;;;24.0;39.2
44075;BME280;60448;44.956;7.660;2022-09-21T03:05:00;98990;;;24.0;39.2
44075;BME280;60448;44.956;7.660;2022-09-21T03:10:00;98990;;;24.0;39.2
44075;BME280;60448;44.956;7.660;2022-09-21T03:15:00;99000;;;24.0;39.4
44075;BME280;60448;44.956;7.660;2022-09-21T03:20:00;99000;;;24.0;39.4
44075;BME280;60448;44.956;7.660;2022-09-21T03:25:00;99000;;;24.0;39.4
44075;BME280;60448;44.956;7.660;2022-09-21T03:30:00;99010;;;24.0;39.8
44075;BME280;60448;44.956;7.660;2022-09-21T03:35:00;99010;;;24.0;39.8
44075;BME280;60448;44.956;7.660;2022-09-21T03:40:00;99010;;;24.0;39.8
44075;BME280;60448;44.956;7.660;2022-09-21T03:45:00;99010;;;23.9;39.6
44075;BME280;60448;44.956;7.660;2022-09-21T03:50:00;99020;;;23.9;39.6
44075;BME280;60448;44.956;7.660;2022-09-21T03:55:00;99020;;;23.9;39.6
44075;BME280;60448;44.956;7.660;2022-09-21T04:00:04;99020;;;23.9;39.6
44075;BME280;60448;44.956;7.660;2022-09-21T04:05:00;99030;;;23.9;39.5
44075;BME280;60448;44.956;7.660;2022-09-21T04:10:00;99030;;;23.9;39.5
44075;BME280;60448;44.956;7.660;2022-09-21T04:15:00;99030;;;23.9;39.5
44075;BME280;60448;44.956;7.660;2022-09-21T04:20:00;99040;;;23.9;39.9
44075;BME280;60448;44.956;7.660;2022-09-21T04:25:00;99040;;;23.9;39.9
44075;BME280;60448;44.956;7.660;2022-09-21T04:30:00;99040;;;23.9;39.9
44075;BME280;60448;44.956;7.660;2022-09-21T04:35:00;99060;;;23.8;39.8
44075;BME280;60448;44.956;7.660;2022-09-21T04:40:00;99060;;;23.8;39.8
44075;BME280;60448;44.956;7.660;2022-09-21T04:45:00;99060;;;23.8;39.8
44075;BME280;60448;44.956;7.660;2022-09-21T04:50:00;99070;;;23.8;40.2
44075;BME280;60448;44.956;7.660;2022-09-21T04:55:00;99070;;;23.8;40.2
44075;BME280;60448;44.956;7.660;2022-09-21T05:00:00;99070;;;23.8;40.2
44075;BME280;60448;44.956;7.660;2022-09-21T05:05:00;99090;;;23.8;40.3
44075;BME280;60448;44.956;7.660;2022-09-21T05:10:00;99090;;;23.8;40.4
44075;BME280;60448;44.956;7.660;2022-09-21T05:15:00;99090;;;23.8;40.4
44075;BME280;60448;44.956;7.660;2022-09-21T05:20:00;99090;;;23.7;40.5
44075;BME280;60448;44.956;7.660;2022-09-21T05:25:00;99090;;;23.6;40.6
44075;BME280;60448;44.956;7.660;2022-09-21T05:30:00;99090;;;23.6;40.6
44075;BME280;60448;44.956;7.660;2022-09-21T05:35:05;99110;;;23.5;40.9
44075;BME280;60448;44.956;7.660;2022-09-21T05:40:00;99110;;;23.4;40.9
44075;BME280;60448;44.956;7.660;2022-09-21T05:45:00;99110;;;23.4;40.9
44075;BME280;60448;44.956;7.660;2022-09-21T05:50:02;99110;;;23.4;40.9
44075;BME280;60448;44.956;7.660;2022-09-21T06:00:02;99130;;;23.5;42.4
44075;BME280;60448;44.956;7.660;2022-09-21T06:05:00;99140;;;23.3;43.1
44075;BME280;60448;44.956;7.660;2022-09-21T06:10:00;99140;;;23.3;43.2
44075;BME280;60448;44.956;7.660;2022-09-21T06:15:00;99150;;;23.3;43.2
44075;BME280;60448;44.956;7.660;2022-09-21T06:20:00;99160;;;23.4;43.2
44075;BME280;60448;44.956;7.660;2022-09-21T06:25:00;99170;;;23.5;43.0
44075;BME280;60448;44.956;7.660;2022-09-21T06:30:00;99160;;;23.5;42.8
44075;BME280;60448;44.956;7.660;2022-09-21T06:35:00;99170;;;23.6;42.7
44075;BME280;60448;44.956;7.660;2022-09-21T06:40:00;99170;;;23.6;42.9
44075;BME280;60448;44.956;7.660;2022-09-21T06:45:00;99170;;;23.5;43.1
44075;BME280;60448;44.956;7.660;2022-09-21T06:50:00;99170;;;23.5;43.4
44075;BME280;60448;44.956;7.660;2022-09-21T06:55:00;99170;;;23.5;44.0
44075;BME280;60448;44.956;7.660;2022-09-21T07:00:00;99180;;;23.6;44.0
44075;BME280;60448;44.956;7.660;2022-09-21T07:05:00;99190;;;23.6;44.1
44075;BME280;60448;44.956;7.660;2022-09-21T07:10:00;99180;;;23.6;44.2
44075;BME280;60448;44.956;7.660;2022-09-21T07:15:01;99190;;;23.7;44.2
44075;BME280;60448;44.956;7.660;2022-09-21T07:20:00;99190;;;23.7;44.3
44075;BME280;60448;44.956;7.660;2022-09-21T07:25:03;99190;;;23.6;44.4
44075;BME280;60448;44.956;7.660;2022-09-21T07:30:00;99200;;;23.7;44.1
44075;BME280;60448;44.956;7.660;2022-09-21T07:35:00;99210;;;23.7;44.1
44075;BME280;60448;44.956;7.660;2022-09-21T07:40:00;99210;;;23.6;43.7
44075;BME280;60448;44.956;7.660;2022-09-21T07:45:00;99220;;;23.4;43.7
44075;BME280;60448;44.956;7.660;2022-09-21T07:50:00;99230;;;23.2;43.9
44075;BME280;60448;44.956;7.660;2022-09-21T07:55:00;99240;;;22.9;44.4
44075;BME280;60448;44.956;7.660;2022-09-21T08:00:00;99240;;;22.5;45.2
44075;BME280;60448;44.956;7.660;2022-09-21T08:05:00;99250;;;22.0;46.2
44075;BME280;60448;44.956;7.660;2022-09-21T08:10:00;99260;;;21.8;46.9
44075;BME280;60448;44.956;7.660;2022-09-21T08:15:00;99270;;;21.6;47.7
44075;BME280;60448;44.956;7.660;2022-09-21T08:20:00;99270;;;21.8;47.9
44075;BME280;60448;44.956;7.660;2022-09-21T08:25:00;99270;;;21.9;47.9
44075;BME280;60448;44.956;7.660;2022-09-21T08:30:00;99280;;;22.1;47.5
44075;BME280;60448;44.956;7.660;2022-09-21T08:35:00;99280;;;22.3;47.0
44075;BME280;60448;44.956;7.660;2022-09-21T08:40:00;99280;;;22.4;46.9
44075;BME280;60448;44.956;7.660;2022-09-21T08:45:01;99280;;;22.5;46.5
44075;BME280;60448;44.956;7.660;2022-09-21T08:50:00;99280;;;22.6;46.4
44075;BME280;60448;44.956;7.660;2022-09-21T08:55:00;99290;;;22.6;46.6
44075;BME280;60448;44.956;7.660;2022-09-21T09:00:00;99300;;;22.7;46.7
44075;BME280;60448;44.956;7.660;2022-09-21T09:10:06;99310;;;22.4;47.5
44075;BME280;60448;44.956;7.660;2022-09-21T09:15:05;99310;;;22.1;47.8
44075;BME280;60448;44.956;7.660;2022-09-21T09:25:02;99310;;;21.8;48.7
44075;BME280;60448;44.956;7.660;2022-09-21T09:30:15;99310;;;21.8;48.9
44075;BME280;60448;44.956;7.660;2022-09-21T09:35:14;99330;;;21.7;49.3
44075;BME280;60448;44.956;7.660;2022-09-21T09:40:00;99320;;;21.6;49.2
44075;BME280;60448;44.956;7.660;2022-09-21T09:50:04;99320;;;21.5;49.5
44075;BME280;60448;44.956;7.660;2022-09-21T09:55:00;99320;;;21.5;49.7
44075;BME280;60448;44.956;7.660;2022-09-21T10:00:02;99320;;;21.3;50.2
44075;BME280;60448;44.956;7.660;2022-09-21T10:05:01;99320;;;21.0;50.7
44075;BME280;60448;44.956;7.660;2022-09-21T10:10:00;99320;;;20.8;51.4
44075;BME280;60448;44.956;7.660;2022-09-21T10:15:00;99330;;;20.8;51.4
44075;BME280;60448;44.956;7.660;2022-09-21T10:20:00;99330;;;20.8;51.2
44075;BME280;60448;44.956;7.660;2022-09-21T10:25:00;99330;;;20.9;51.0
44075;BME280;60448;44.956;7.660;2022-09-21T10:30:00;99330;;;21.0;50.5
44075;BME280;60448;44.956;7.660;2022-09-21T10:40:00;99340;;;21.4;49.1
44075;BME280;60448;44.956;7.660;2022-09-21T10:50:00;99350;;;21.8;48.2
44075;BME280;60448;44.956;7.660;2022-09-21T10:55:00;99360;;;21.9;47.9
44075;BME280;60448;44.956;7.660;2022-09-21T11:05:03;99370;;;22.1;47.5
44075;BME280;60448;44.956;7.660;2022-09-21T11:20:13;99360;;;21.6;48.6
44075;BME280;60448;44.956;7.660;2022-09-21T11:30:04;99360;;;21.5;48.6
44075;BME280;60448;44.956;7.660;2022-09-21T11:35:14;99360;;;21.7;48.4
44075;BME280;60448;44.956;7.660;2022-09-21T11:40:06;99370;;;21.9;47.8
44075;BME280;60448;44.956;7.660;2022-09-21T11:45:00;99370;;;22.1;47.2
44075;BME280;60448;44.956;7.660;2022-09-21T12:35:01;99340;;;22.5;48.2
44075;BME280;60448;44.956;7.660;2022-09-21T12:50:02;99340;;;22.3;47.8
44075;BME280;60448;44.956;7.660;2022-09-21T12:55:06;99330;;;22.3;47.8
44075;BME280;60448;44.956;7.660;2022-09-21T13:00:03;99330;;;22.4;47.8
44075;BME280;60448;44.956;7.660;2022-09-21T13:05:06;99330;;;22.4;47.8
44075;BME280;60448;44.956;7.660;2022-09-21T13:10:00;99330;;;22.5;47.8
44075;BME280;60448;44.956;7.660;2022-09-21T13:15:02;99320;;;22.6;47.5
44075;BME280;60448;44.956;7.660;2022-09-21T13:25:02;99310;;;22.8;47.2
44075;BME280;60448;44.956;7.660;2022-09-21T13:30:17;99300;;;22.6;46.7
44075;BME280;60448;44.956;7.660;2022-09-21T13:35:47;99300;;;22.5;47.0
44075;BME280;60448;44.956;7.660;2022-09-21T13:50:00;99290;;;22.6;46.9
44075;BME280;60448;44.956;7.660;2022-09-21T13:55:00;99280;;;22.7;46.5
44075;BME280;60448;44.956;7.660;2022-09-21T14:00:03;99280;;;22.7;46.5
44075;BME280;60448;44.956;7.660;2022-09-21T14:05:05;99280;;;22.6;46.4
44075;BME280;60448;44.956;7.660;2022-09-21T14:10:02;99270;;;22.6;46.3
44075;BME280;60448;44.956;7.660;2022-09-21T14:15:08;99270;;;22.7;46.4
44075;BME280;60448;44.956;7.660;2022-09-21T14:20:00;99260;;;22.5;46.1
44075;BME280;60448;44.956;7.660;2022-09-21T14:35:04;99250;;;22.5;46.4
44075;BME280;60448;44.956;7.660;2022-09-21T14:40:02;99250;;;22.5;46.4
44075;BME280;60448;44.956;7.660;2022-09-21T14:45:00;99250;;;22.4;46.4
44075;BME280;60448;44.956;7.660;2022-09-21T15:15:04;99240;;;22.4;46.5
44075;BME280;60448;44.956;7.660;2022-09-21T15:25:01;99240;;;22.5;46.5
44075;BME280;60448;44.956;7.660;2022-09-21T15:30:01;99240;;;22.5;46.5
44075;BME280;60448;44.956;7.660;2022-09-21T15:35:00;99230;;;22.5;46.5
44075;BME280;60448;44.956;7.660;2022-09-21T15:40:00;99230;;;22.5;46.4
44075;BME280;60448;44.956;7.660;2022-09-21T15:45:11;99240;;;22.5;46.5
44075;BME280;60448;44.956;7.660;2022-09-21T15:50:00;99230;;;22.5;46.5
44075;BME280;60448;44.956;7.660;2022-09-21T15:55:01;99230;;;22.5;46.5
44075;BME280;60448;44.956;7.660;2022-09-21T16:00:00;99230;;;22.4;46.4
44075;BME280;60448;44.956;7.660;2022-09-21T16:05:00;99230;;;22.4;46.6
44075;BME280;60448;44.956;7.660;2022-09-21T16:10:01;99230;;;22.4;46.6
44075;BME280;60448;44.956;7.660;2022-09-21T16:15:03;99230;;;22.4;46.5
44075;BME280;60448;44.956;7.660;2022-09-21T16:25:00;99230;;;22.4;46.7
44075;BME280;60448;44.956;7.660;2022-09-21T16:30:00;99230;;;22.4;46.6
44075;BME280;60448;44.956;7.660;2022-09-21T16:40:00;99230;;;22.4;46.6
44075;BME280;60448;44.956;7.660;2022-09-21T16:45:00;99230;;;22.3;46.6
44075;BME280;60448;44.956;7.660;2022-09-21T16:50:00;99230;;;22.3;46.7
44075;BME280;60448;44.956;7.660;2022-09-21T16:55:00;99230;;;22.3;46.8
44075;BME280;60448;44.956;7.660;2022-09-21T17:00:00;99230;;;22.3;46.9
44075;BME280;60448;44.956;7.660;2022-09-21T17:05:00;99240;;;22.3;46.8
44075;BME280;60448;44.956;7.660;2022-09-21T17:10:00;99240;;;22.3;46.8
44075;BME280;60448;44.956;7.660;2022-09-21T17:15:00;99240;;;22.4;46.8
44075;BME280;60448;44.956;7.660;2022-09-21T17:20:01;99240;;;22.4;46.8
44075;BME280;60448;44.956;7.660;2022-09-21T17:25:00;99240;;;22.3;46.8
44075;BME280;60448;44.956;7.660;2022-09-21T17:30:00;99240;;;22.3;46.9
44075;BME280;60448;44.956;7.660;2022-09-21T17:35:10;99250;;;22.3;47.0
44075;BME280;60448;44.956;7.660;2022-09-21T17:40:00;99250;;;22.2;47.2
44075;BME280;60448;44.956;7.660;2022-09-21T17:45:03;99260;;;22.1;47.3
44075;BME280;60448;44.956;7.660;2022-09-21T17:50:07;99260;;;21.9;47.7
44075;BME280;60448;44.956;7.660;2022-09-21T17:55:02;99260;;;21.8;48.0
44075;BME280;60448;44.956;7.660;2022-09-21T18:00:03;99270;;;21.6;48.4
44075;BME280;60448;44.956;7.660;2022-09-21T18:05:02;99270;;;21.6;48.6
44075;BME280;60448;44.956;7.660;2022-09-21T18:10:00;99280;;;21.6;48.7
44075;BME280;60448;44.956;7.660;2022-09-21T18:25:00;99290;;;21.6;48.7
44075;BME280;60448;44.956;7.660;2022-09-21T18:30:00;99300;;;21.7;48.6
44075;BME280;60448;44.956;7.660;2022-09-21T18:35:05;99300;;;21.7;48.4
44075;BME280;60448;44.956;7.660;2022-09-21T18:40:32;99300;;;21.8;48.4
44075;BME280;60448;44.956;7.660;2022-09-21T18:45:01;99300;;;21.8;48.4
44075;BME280;60448;44.956;7.660;2022-09-21T18:50:02;99310;;;21.8;48.4
44075;BME280;60448;44.956;7.660;2022-09-21T18:55:00;99310;;;21.8;48.4
44075;BME280;60448;44.956;7.660;2022-09-21T19:00:00;99320;;;21.8;48.4
44075;BME280;60448;44.956;7.660;2022-09-21T19:05:00;99320;;;21.8;48.5
44075;BME280;60448;44.956;7.660;2022-09-21T19:15:08;99330;;;21.8;48.5
44075;BME280;60448;44.956;7.660;2022-09-21T19:25:06;99340;;;21.8;48.5
44075;BME280;60448;44.956;7.660;2022-09-21T19:35:00;99330;;;21.9;48.3
44075;BME280;60448;44.956;7.660;2022-09-21T19:40:00;99340;;;22.0;48.3
44075;BME280;60448;44.956;7.660;2022-09-21T19:45:07;99330;;;22.1;48.3
44075;BME280;60448;44.956;7.660;2022-09-21T19:55:00;99340;;;22.2;48.3
44075;BME280;60448;44.956;7.660;2022-09-21T20:00:00;99340;;;22.2;48.3
44075;BME280;60448;44.956;7.660;2022-09-21T20:10:05;99340;;;22.3;48.2
44075;BME280;60448;44.956;7.660;2022-09-21T20:15:05;99340;;;22.3;48.3
44075;BME280;60448;44.956;7.660;2022-09-21T20:20:02;99340;;;22.3;48.3
44075;BME280;60448;44.956;7.660;2022-09-21T20:25:07;99340;;;22.4;48.3
44075;BME280;60448;44.956;7.660;2022-09-21T20:30:01;99330;;;22.4;48.5
44075;BME280;60448;44.956;7.660;2022-09-21T20:35:00;99340;;;22.4;49.0
44075;BME280;60448;44.956;7.660;2022-09-21T20:45:00;99340;;;22.4;49.5
44075;BME280;60448;44.956;7.660;2022-09-21T20:50:00;99340;;;22.5;49.6
44075;BME280;60448;44.956;7.660;2022-09-21T20:55:00;99340;;;22.5;49.7
44075;BME280;60448;44.956;7.660;2022-09-21T21:00:00;99340;;;22.5;49.7
44075;BME280;60448;44.956;7.660;2022-09-21T21:05:00;99350;;;22.5;49.7
44075;BME280;60448;44.956;7.660;2022-09-21T21:10:00;99350;;;22.5;49.7
44075;BME280;60448;44.956;7.660;2022-09-21T21:15:00;99360;;;22.5;49.6
44075;BME280;60448;44.956;7.660;2022-09-21T21:20:00;99360;;;22.5;49.6
44075;BME280;60448;44.956;7.660;2022-09-21T21:25:00;99360;;;22.5;49.6
44075;BME280;60448;44.956;7.660;2022-09-21T21:30:00;99360;;;22.5;49.5
44075;BME280;60448;44.956;7.660;2022-09-21T21:35:00;99360;;;22.5;49.5
44075;BME280;60448;44.956;7.660;2022-09-21T21:40:00;99360;;;22.5;49.4
44075;BME280;60448;44.956;7.660;2022-09-21T21:45:00;99360;;;22.5;49.4
44075;BME280;60448;44.956;7.660;2022-09-21T21:50:00;99360;;;22.5;49.4
44075;BME280;60448;44.956;7.660;2022-09-21T21:55:00;99370;;;22.5;49.4
44075;BME280;60448;44.956;7.660;2022-09-21T22:00:00;99370;;;22.5;49.3
44075;BME280;60448;44.956;7.660;2022-09-21T22:05:00;99370;;;22.5;49.3
44075;BME280;60448;44.956;7.660;2022-09-21T22:10:00;99370;;;22.5;49.3
44075;BME280;60448;44.956;7.660;2022-09-21T22:15:00;99370;;;22.5;49.2
44075;BME280;60448;44.956;7.660;2022-09-21T22:20:00;99370;;;22.5;49.1
44075;BME280;60448;44.956;7.660;2022-09-21T22:25:00;99360;;;22.6;49.1
44075;BME280;60448;44.956;7.660;2022-09-21T22:30:00;99360;;;22.6;48.9
44075;BME280;60448;44.956;7.660;2022-09-21T22:35:00;99360;;;22.6;48.6
44075;BME280;60448;44.956;7.660;2022-09-21T22:40:00;99360;;;22.6;48.3
44075;BME280;60448;44.956;7.660;2022-09-21T22:45:00;99360;;;22.5;48.2
44075;BME280;60448;44.956;7.660;2022-09-21T22:50:00;99360;;;22.5;48.0
44075;BME280;60448;44.956;7.660;2022-09-21T22:55:00;99360;;;22.5;47.9
44075;BME280;60448;44.956;7.660;2022-09-21T23:00:00;99360;;;22.5;47.8
44075;BME280;60448;44.956;7.660;2022-09-21T23:05:00;99360;;;22.5;47.7
44075;BME280;60448;44.956;7.660;2022-09-21T23:10:00;99360;;;22.5;47.6
44075;BME280;60448;44.956;7.660;2022-09-21T23:15:00;99360;;;22.5;47.5
44075;BME280;60448;44.956;7.660;2022-09-21T23:20:00;99350;;;22.5;47.5
44075;BME280;60448;44.956;7.660;2022-09-21T23:25:00;99360;;;22.5;47.4
44075;BME280;60448;44.956;7.660;2022-09-21T23:30:00;99350;;;22.5;47.3
44075;BME280;60448;44.956;7.660;2022-09-21T23:35:00;99350;;;22.5;47.3
44075;BME280;60448;44.956;7.660;2022-09-21T23:40:00;99350;;;22.4;47.3
44075;BME280;60448;44.956;7.660;2022-09-21T23:45:00;99340;;;22.5;47.2
44075;BME280;60448;44.956;7.660;2022-09-21T23:50:00;99340;;;22.4;47.2
44075;BME280;60448;44.956;7.660;2022-09-21T23:55:00;99340;;;22.4;47.2
